Great — TCYV6 — position and weather

sailwx.info

Track history (hours):
 
Tides and Currents Weather Stations Pressure Air Temp Water Temp Dewpoint Dewpoint Depression Visibility Wind Speed Wind Dir Waves Ship Positions

Great

Last reported at 2014-Nov-26 20:33 UTC. Time now 2014-Nov-27 08:11 UTC.
Position N 36°29' E 024°07'.

Length 187 m; draft 10.5 m.

Type: Cargo ship. MMSI: 271042241.

Date/timePositionNaut miles runAvg speedWind from/ knotsBaromVisibWave heightAir tempDewpointWater temp
2014-Nov-26 20:33N 36°29' E 024°07'1111.3
2014-Nov-26 19:33N 36°30' E 024°21'1111.4
2014-Nov-26 18:33N 36°30' E 024°35'1111.2
2014-Nov-26 17:33N 36°31' E 024°49'1111.2
2014-Nov-26 16:33N 36°33' E 025°03'1211.5
2014-Nov-26 15:33N 36°34' E 025°17'1111.2
2014-Nov-26 14:33N 36°37' E 025°30'1111.2
2014-Nov-26 13:33N 36°42' E 025°43'1111.3
2014-Nov-26 12:33N 36°46' E 025°56'1111.0
2014-Nov-26 11:32N 36°51' E 026°09'  
2014-Nov-22 09:28N 36°51' E 026°11'1011.1
2014-Nov-22 08:34N 36°47' E 025°60'1111.3
2014-Nov-22 07:33N 36°43' E 025°46'1111.1
2014-Nov-22 06:34N 36°38' E 025°34'1111.2
2014-Nov-22 05:33N 36°34' E 025°21'1111.2
2014-Nov-22 04:34N 36°33' E 025°07'1211.5
2014-Nov-22 03:33N 36°32' E 024°53'1111.4
2014-Nov-22 02:34N 36°30' E 024°39'1111.2
2014-Nov-22 01:33N 36°29' E 024°25'1111.4
2014-Nov-22 00:33N 36°28' E 024°11'  
Track history (hours):
 
Tides and Currents Weather Stations Pressure Air Temp Water Temp Dewpoint Dewpoint Depression Visibility Wind Speed Wind Dir Waves Ship Positions

Great

Last reported at 2014-Nov-26 20:33 UTC. Time now 2014-Nov-27 08:11 UTC.
Position N 36°29' E 024°07'.

Length 187 m; draft 10.5 m.

Type: Cargo ship. MMSI: 271042241.

Date/timePositionNaut miles runAvg speedWind from/ knotsBaromVisibWave heightAir tempDewpointWater temp
2014-Nov-26 20:33N 36°29' E 024°07'1111.3
2014-Nov-26 19:33N 36°30' E 024°21'1111.4
2014-Nov-26 18:33N 36°30' E 024°35'1111.2
2014-Nov-26 17:33N 36°31' E 024°49'1111.2
2014-Nov-26 16:33N 36°33' E 025°03'1211.5
2014-Nov-26 15:33N 36°34' E 025°17'1111.2
2014-Nov-26 14:33N 36°37' E 025°30'1111.2
2014-Nov-26 13:33N 36°42' E 025°43'1111.3
2014-Nov-26 12:33N 36°46' E 025°56'1111.0
2014-Nov-26 11:32N 36°51' E 026°09'  
2014-Nov-22 09:28N 36°51' E 026°11'1011.1
2014-Nov-22 08:34N 36°47' E 025°60'1111.3
2014-Nov-22 07:33N 36°43' E 025°46'1111.1
2014-Nov-22 06:34N 36°38' E 025°34'1111.2
2014-Nov-22 05:33N 36°34' E 025°21'1111.2
2014-Nov-22 04:34N 36°33' E 025°07'1211.5
2014-Nov-22 03:33N 36°32' E 024°53'1111.4
2014-Nov-22 02:34N 36°30' E 024°39'1111.2
2014-Nov-22 01:33N 36°29' E 024°25'1111.4
2014-Nov-22 00:33N 36°28' E 024°11'  

Dump ship's entire track history